Time;durP1;ratioP1;P1;durP2;ratioP2;P2;SDS_P1;SDS_P2;PMS_P1;PMS_P2;Temp;Humidity;BMP_temperature;BMP_pressure;BME280_temperature;BME280_humidity;BME280_pressure;Samples;Min_cycle;Max_cycle;Signal;HPM_P1;HPM_P2
2022/09/26 00:02:18;;;;;;;7.18;4.00;;;9.30;99.90;;;;;;5084572;28;20026;-60
2022/09/26 00:04:44;;;;;;;14.23;3.60;;;9.30;99.90;;;;;;5081849;28;20040;-60
2022/09/26 00:07:10;;;;;;;10.18;4.00;;;9.30;99.90;;;;;;5085897;28;20020;-58
2022/09/26 00:09:35;;;;;;;7.57;3.90;;;9.30;99.90;;;;;;5087684;28;20025;-60
2022/09/26 00:12:01;;;;;;;16.17;3.90;;;9.30;99.90;;;;;;5083876;28;20497;-60
2022/09/26 00:14:28;;;;;;;9.40;3.63;;;9.30;99.90;;;;;;5085567;28;20071;-59
2022/09/26 00:16:54;;;;;;;10.02;3.95;;;9.30;99.90;;;;;;5089908;28;20024;-61
2022/09/26 00:19:20;;;;;;;12.20;3.83;;;9.30;99.90;;;;;;5085128;28;20020;-58
2022/09/26 00:21:46;;;;;;;8.88;4.20;;;9.20;99.90;;;;;;5090876;28;20061;-60
2022/09/26 00:24:13;;;;;;;7.38;3.60;;;9.20;99.90;;;;;;5097177;28;20580;-59
2022/09/26 00:26:38;;;;;;;9.02;3.90;;;9.30;99.90;;;;;;5092007;28;20452;-60
2022/09/26 00:29:07;;;;;;;5.20;3.28;;;9.30;99.90;;;;;;5088837;28;20056;-60
2022/09/26 00:31:36;;;;;;;12.75;3.72;;;9.30;99.90;;;;;;5087304;28;20020;-59
2022/09/26 00:34:03;;;;;;;6.28;3.20;;;9.30;99.90;;;;;;5081636;28;20028;-58
2022/09/26 00:36:28;;;;;;;9.70;3.80;;;9.20;99.90;;;;;;5087198;28;20529;-58
2022/09/26 00:38:54;;;;;;;11.15;4.38;;;9.30;99.90;;;;;;5091364;28;20036;-58
2022/09/26 00:41:20;;;;;;;7.28;3.83;;;9.30;99.90;;;;;;5083358;28;20056;-59
2022/09/26 00:43:46;;;;;;;13.70;4.20;;;9.30;99.90;;;;;;5080567;28;20020;-59
2022/09/26 00:46:15;;;;;;;13.52;3.83;;;9.30;99.90;;;;;;5084479;28;20385;-58
2022/09/26 00:48:44;;;;;;;10.45;3.58;;;9.20;99.90;;;;;;5079149;28;20029;-60
2022/09/26 00:51:10;;;;;;;15.27;4.57;;;9.10;99.90;;;;;;5081389;28;20028;-59
2022/09/26 00:53:43;;;;;;;10.77;3.15;;;9.10;99.90;;;;;;5079729;28;20071;-60
2022/09/26 00:56:18;;;;;;;7.07;3.42;;;9.00;99.90;;;;;;5082512;28;20039;-59
2022/09/26 00:58:50;;;;;;;11.18;3.60;;;9.00;99.90;;;;;;5087473;28;20024;-59
2022/09/26 01:01:18;;;;;;;6.90;3.45;;;9.00;99.90;;;;;;5086426;28;20024;-59
2022/09/26 01:03:46;;;;;;;5.63;3.17;;;9.10;99.90;;;;;;5082070;28;20024;-59
2022/09/26 01:06:12;;;;;;;15.63;3.80;;;9.00;99.90;;;;;;5085750;28;20400;-60
2022/09/26 01:08:47;;;;;;;6.80;3.70;;;9.00;99.90;;;;;;5082028;28;20035;-59
2022/09/26 01:11:14;;;;;;;6.75;3.60;;;9.00;99.90;;;;;;5085535;28;20037;-59
2022/09/26 01:13:41;;;;;;;9.05;3.08;;;9.00;99.90;;;;;;5077566;28;20048;-59
2022/09/26 01:16:07;;;;;;;7.80;3.47;;;9.10;99.90;;;;;;5080106;28;20051;-59
2022/09/26 01:18:33;;;;;;;11.85;4.20;;;9.20;99.90;;;;;;5084342;28;20490;-57
2022/09/26 01:21:26;;;;;;;11.10;3.63;;;9.20;99.90;;;;;;5075173;28;20036;-61
2022/09/26 01:24:26;;;;;;;7.88;3.58;;;9.20;99.90;;;;;;5077799;28;20044;-61
2022/09/26 01:27:16;;;;;;;10.60;3.67;;;9.20;99.90;;;;;;5048616;28;20475;-60
2022/09/26 01:30:03;;;;;;;6.25;3.45;;;9.20;99.90;;;;;;5081622;28;20107;-59
2022/09/26 01:32:50;;;;;;;10.80;3.78;;;9.30;99.90;;;;;;5082297;28;20028;-60
2022/09/26 01:35:27;;;;;;;10.23;3.30;;;9.30;99.90;;;;;;5082253;28;20024;-59
2022/09/26 01:38:01;;;;;;;10.75;4.07;;;9.40;99.90;;;;;;5082067;28;20443;-60
2022/09/26 01:40:41;;;;;;;7.75;3.70;;;9.40;99.90;;;;;;5085704;28;20016;-60
2022/09/26 01:43:22;;;;;;;9.45;3.95;;;9.40;99.90;;;;;;5076853;28;20036;-60
2022/09/26 01:46:11;;;;;;;7.25;3.67;;;9.40;99.90;;;;;;5081606;28;20020;-60
2022/09/26 01:48:47;;;;;;;11.95;3.92;;;9.50;99.90;;;;;;5064589;28;20029;-59
2022/09/26 01:51:29;;;;;;;12.63;3.58;;;9.50;99.90;;;;;;5079809;28;20052;-57
2022/09/26 01:54:04;;;;;;;7.72;3.63;;;9.60;99.90;;;;;;5081533;28;20024;-61
2022/09/26 01:56:33;;;;;;;12.80;3.42;;;9.60;99.90;;;;;;5076571;28;20071;-59
2022/09/26 01:59:08;;;;;;;9.55;3.92;;;9.70;99.90;;;;;;5080462;28;20481;-58
2022/09/26 02:01:38;;;;;;;27.20;5.53;;;9.70;99.90;;;;;;5078652;28;20024;-58
2022/09/26 02:04:09;;;;;;;11.63;3.42;;;9.70;99.90;;;;;;5081579;28;20066;-58
2022/09/26 02:06:46;;;;;;;10.98;4.15;;;9.80;99.90;;;;;;5071703;28;20444;-61
2022/09/26 02:09:19;;;;;;;6.97;3.67;;;9.80;99.90;;;;;;5085340;28;20509;-58
2022/09/26 02:11:49;;;;;;;11.38;3.22;;;9.80;99.90;;;;;;5081630;28;20052;-58
2022/09/26 02:14:20;;;;;;;9.25;4.20;;;9.90;99.90;;;;;;5076990;28;20041;-57
2022/09/26 02:16:49;;;;;;;8.32;3.60;;;9.90;99.90;;;;;;5075381;28;20020;-57
2022/09/26 02:19:24;;;;;;;6.72;2.97;;;10.00;99.90;;;;;;5082986;28;20059;-57
2022/09/26 02:21:50;;;;;;;10.75;3.78;;;10.00;99.90;;;;;;5073491;28;20029;-58
2022/09/26 02:24:16;;;;;;;8.23;3.60;;;10.00;99.90;;;;;;5077649;28;20028;-59
2022/09/26 02:26:42;;;;;;;16.00;4.30;;;10.00;99.90;;;;;;5078784;28;20028;-59
2022/09/26 02:29:10;;;;;;;10.25;3.80;;;10.00;99.90;;;;;;5088301;28;20515;-60
2022/09/26 02:31:42;;;;;;;10.65;4.22;;;10.00;99.90;;;;;;5086863;28;20366;-58
2022/09/26 02:34:08;;;;;;;10.07;3.30;;;10.00;99.90;;;;;;5081683;28;20028;-59
2022/09/26 02:36:34;;;;;;;4.78;3.15;;;10.00;99.90;;;;;;5083878;28;20315;-60
2022/09/26 02:39:00;;;;;;;13.13;3.45;;;10.00;99.90;;;;;;5077021;28;20028;-60
2022/09/26 02:41:48;;;;;;;5.30;3.60;;;10.10;99.90;;;;;;5072451;28;20020;-59
2022/09/26 02:44:44;;;;;;;7.03;3.50;;;10.20;99.90;;;;;;5079272;28;20013;-59
2022/09/26 02:47:28;;;;;;;7.75;3.55;;;10.30;99.90;;;;;;5084213;28;20055;-57
2022/09/26 02:50:11;;;;;;;9.97;3.80;;;10.30;99.90;;;;;;5077959;28;20033;-60
2022/09/26 02:52:51;;;;;;;11.10;3.85;;;10.30;99.90;;;;;;5084860;28;20767;-59
2022/09/26 02:55:24;;;;;;;8.40;3.65;;;10.30;99.90;;;;;;5077619;28;20041;-60
2022/09/26 02:58:10;;;;;;;4.15;2.95;;;10.30;99.90;;;;;;5082489;28;20024;-60
2022/09/26 03:01:04;;;;;;;7.07;3.55;;;10.40;99.90;;;;;;5078275;28;20020;-60
2022/09/26 03:03:40;;;;;;;11.87;4.33;;;10.40;99.90;;;;;;5077845;28;20161;-59
2022/09/26 03:06:09;;;;;;;9.05;3.75;;;10.40;99.90;;;;;;5079867;28;20409;-60
2022/09/26 03:08:41;;;;;;;10.40;3.60;;;10.30;99.90;;;;;;5079662;28;20071;-62
2022/09/26 03:11:09;;;;;;;4.53;2.78;;;10.30;99.90;;;;;;5071737;28;20039;-60
2022/09/26 03:13:37;;;;;;;8.20;3.28;;;10.30;99.90;;;;;;5073187;28;20078;-57
2022/09/26 03:16:04;;;;;;;6.07;2.97;;;10.30;99.90;;;;;;5081778;28;20438;-60
2022/09/26 03:18:37;;;;;;;8.27;3.53;;;10.40;99.90;;;;;;5079306;28;20021;-59
2022/09/26 03:21:03;;;;;;;10.10;3.83;;;10.40;99.90;;;;;;5082659;28;20031;-60
2022/09/26 03:23:29;;;;;;;11.68;3.88;;;10.40;99.90;;;;;;5078364;28;20017;-60
2022/09/26 03:26:07;;;;;;;10.73;3.85;;;10.40;99.90;;;;;;5078314;28;20060;-61
2022/09/26 03:28:33;;;;;;;11.73;4.53;;;10.40;99.90;;;;;;5076315;28;20027;-58
2022/09/26 03:30:58;;;;;;;10.18;4.55;;;10.40;99.90;;;;;;5077875;28;20477;-62
2022/09/26 03:33:24;;;;;;;9.57;6.78;;;10.40;99.90;;;;;;5081943;28;20031;-59
2022/09/26 03:35:49;;;;;;;15.18;6.35;;;10.40;99.90;;;;;;5075233;28;20025;-60
2022/09/26 03:38:15;;;;;;;9.57;5.55;;;10.40;99.90;;;;;;5084597;28;20016;-60
2022/09/26 03:40:41;;;;;;;19.08;8.60;;;10.50;99.90;;;;;;5078710;28;20028;-61
2022/09/26 03:43:07;;;;;;;15.77;7.97;;;10.50;99.90;;;;;;5083164;28;20028;-60
2022/09/26 03:45:35;;;;;;;22.10;8.73;;;10.50;99.90;;;;;;5082162;28;20020;-59
2022/09/26 03:48:01;;;;;;;14.02;7.78;;;10.60;99.90;;;;;;5076493;28;20402;-60
2022/09/26 03:50:27;;;;;;;10.88;7.35;;;10.60;99.90;;;;;;5082394;28;20081;-60
2022/09/26 03:52:52;;;;;;;19.90;8.70;;;10.70;99.90;;;;;;5080038;28;20063;-59
2022/09/26 03:55:18;;;;;;;14.30;8.43;;;10.80;99.90;;;;;;5078206;28;20028;-59
2022/09/26 03:57:43;;;;;;;15.95;8.68;;;10.80;99.90;;;;;;5076972;28;20086;-59
2022/09/26 04:00:10;;;;;;;13.40;8.65;;;10.80;99.90;;;;;;5078033;28;20024;-59
2022/09/26 04:02:35;;;;;;;17.35;8.93;;;10.90;99.90;;;;;;5078942;28;20024;-60
2022/09/26 04:05:01;;;;;;;16.42;8.65;;;10.90;99.90;;;;;;5077155;28;20035;-60
2022/09/26 04:07:26;;;;;;;19.88;8.98;;;10.90;99.90;;;;;;5088175;28;20102;-60
2022/09/26 04:09:52;;;;;;;17.42;9.10;;;10.90;99.90;;;;;;5078608;28;20040;-60
2022/09/26 04:12:19;;;;;;;15.15;8.35;;;10.90;99.90;;;;;;5078533;28;20028;-59
2022/09/26 04:14:45;;;;;;;18.27;8.57;;;10.90;99.90;;;;;;5081503;28;20024;-60
2022/09/26 04:17:11;;;;;;;16.65;8.18;;;10.90;99.90;;;;;;5082186;28;20032;-60
2022/09/26 04:19:37;;;;;;;17.00;8.68;;;10.90;99.90;;;;;;5076893;28;20452;-60
2022/09/26 04:22:03;;;;;;;16.90;8.02;;;10.90;99.90;;;;;;5081318;28;20031;-60
2022/09/26 04:24:29;;;;;;;18.35;9.50;;;10.90;99.90;;;;;;5082719;28;20392;-60
2022/09/26 04:26:54;;;;;;;17.58;8.25;;;10.90;99.90;;;;;;5084875;28;20032;-60
2022/09/26 04:29:20;;;;;;;15.60;7.85;;;10.90;99.90;;;;;;5076710;28;20103;-60
2022/09/26 04:31:45;;;;;;;14.43;7.05;;;10.90;99.90;;;;;;5083511;28;20100;-60
2022/09/26 04:34:11;;;;;;;16.30;7.75;;;10.90;99.90;;;;;;5086385;28;20481;-60
2022/09/26 04:36:37;;;;;;;12.25;7.85;;;10.90;99.90;;;;;;5088680;28;20032;-59
2022/09/26 04:39:04;;;;;;;14.20;8.52;;;10.90;99.90;;;;;;5078171;28;20025;-60
2022/09/26 04:41:30;;;;;;;17.70;7.60;;;10.90;99.90;;;;;;5089647;28;20024;-60
2022/09/26 04:43:57;;;;;;;16.02;7.72;;;10.80;99.90;;;;;;5077783;28;20028;-59
2022/09/26 04:46:25;;;;;;;17.20;7.80;;;10.90;99.90;;;;;;5081042;28;20401;-60
2022/09/26 04:48:52;;;;;;;13.85;8.20;;;10.90;99.90;;;;;;5083190;28;20035;-58
2022/09/26 04:51:19;;;;;;;14.52;7.80;;;10.80;99.90;;;;;;5087552;28;20028;-60
2022/09/26 04:53:45;;;;;;;18.10;8.02;;;10.80;99.90;;;;;;5111804;22;20036;-61
2022/09/26 04:56:13;;;;;;;11.27;6.82;;;10.80;99.90;;;;;;5083505;28;20109;-62
2022/09/26 04:58:40;;;;;;;15.80;8.05;;;10.80;99.90;;;;;;5090777;28;20035;-62
2022/09/26 05:01:18;;;;;;;14.55;8.50;;;10.80;99.90;;;;;;5086865;28;20020;-61
2022/09/26 05:03:44;;;;;;;14.05;8.10;;;10.80;99.90;;;;;;5076394;28;20017;-61
2022/09/26 05:06:10;;;;;;;13.35;7.25;;;10.80;99.90;;;;;;5065557;28;20535;-54
2022/09/26 05:08:38;;;;;;;14.95;7.00;;;10.80;99.90;;;;;;5070311;28;20021;-56
2022/09/26 05:11:04;;;;;;;16.30;7.47;;;10.80;99.90;;;;;;5067517;28;20111;-57
2022/09/26 05:13:29;;;;;;;12.90;7.18;;;10.80;99.90;;;;;;5071808;28;20470;-56
2022/09/26 05:15:58;;;;;;;18.42;8.23;;;10.70;99.90;;;;;;5071834;28;20506;-58
2022/09/26 05:18:25;;;;;;;17.80;8.07;;;10.70;99.90;;;;;;5072712;28;20024;-56
2022/09/26 05:20:52;;;;;;;19.85;7.82;;;10.70;99.90;;;;;;5065729;28;20103;-53
2022/09/26 05:26:18;;;;;;;18.88;7.32;;;10.70;99.90;;;;;;5069062;28;20393;-53
2022/09/26 05:28:47;;;;;;;13.40;7.03;;;10.60;99.90;;;;;;5066488;28;20036;-55
2022/09/26 05:31:13;;;;;;;13.98;8.20;;;10.70;99.90;;;;;;5065653;28;20020;-54
2022/09/26 05:33:38;;;;;;;21.13;7.72;;;10.60;99.90;;;;;;5072096;28;20486;-57
2022/09/26 05:36:04;;;;;;;13.60;7.80;;;10.60;99.90;;;;;;5071476;28;20031;-55
2022/09/26 05:38:30;;;;;;;13.95;6.90;;;10.60;99.90;;;;;;5072149;28;20025;-52
2022/09/26 05:40:55;;;;;;;13.32;7.85;;;10.60;99.90;;;;;;5071592;28;20085;-53
2022/09/26 05:43:22;;;;;;;15.05;8.25;;;10.60;99.90;;;;;;5071903;28;20059;-53
2022/09/26 05:45:49;;;;;;;17.88;8.60;;;10.60;99.90;;;;;;5072719;28;20472;-57
2022/09/26 05:48:16;;;;;;;22.45;8.95;;;10.60;99.90;;;;;;5071263;28;20013;-53
2022/09/26 05:50:42;;;;;;;13.85;8.27;;;10.60;99.90;;;;;;5067968;28;20078;-52
2022/09/26 05:53:08;;;;;;;27.02;9.07;;;10.60;99.90;;;;;;5069723;28;20448;-56
2022/09/26 05:55:36;;;;;;;23.40;8.77;;;10.60;99.90;;;;;;5070650;28;20017;-56
2022/09/26 05:58:02;;;;;;;18.65;10.35;;;10.70;99.90;;;;;;5071503;28;20077;-53
2022/09/26 06:00:27;;;;;;;19.38;8.93;;;10.70;99.90;;;;;;5065409;28;20064;-53
2022/09/26 06:02:57;;;;;;;19.80;8.80;;;10.70;99.90;;;;;;5070883;28;20072;-54
2022/09/26 06:05:24;;;;;;;15.10;8.95;;;10.80;99.90;;;;;;5071331;28;20032;-55
2022/09/26 06:07:51;;;;;;;17.73;8.80;;;10.80;99.90;;;;;;5066946;28;21439;-55
2022/09/26 06:10:18;;;;;;;13.48;8.85;;;10.90;99.90;;;;;;5063119;28;20025;-57
2022/09/26 06:12:44;;;;;;;12.95;7.65;;;10.90;99.90;;;;;;5062356;28;20115;-53
2022/09/26 06:15:10;;;;;;;18.58;8.35;;;10.90;99.90;;;;;;5068622;28;20186;-53
2022/09/26 06:17:35;;;;;;;17.90;8.23;;;10.90;99.90;;;;;;5071328;28;20036;-52
2022/09/26 06:20:02;;;;;;;13.88;8.27;;;10.90;99.90;;;;;;5068526;28;20062;-54
2022/09/26 06:22:27;;;;;;;14.05;7.90;;;11.00;99.90;;;;;;5067589;28;20143;-57
2022/09/26 06:24:53;;;;;;;13.77;7.28;;;11.00;99.90;;;;;;5069422;28;20111;-53
2022/09/26 06:27:21;;;;;;;20.70;7.45;;;11.10;99.90;;;;;;5069576;28;20162;-52
2022/09/26 06:29:47;;;;;;;10.93;6.45;;;11.20;99.90;;;;;;5063970;28;20035;-57
2022/09/26 06:32:12;;;;;;;11.23;7.28;;;11.30;99.90;;;;;;5069373;28;20025;-55
2022/09/26 06:34:38;;;;;;;10.20;6.32;;;11.40;99.90;;;;;;5070173;28;20375;-53
2022/09/26 06:37:03;;;;;;;12.43;6.13;;;11.40;99.90;;;;;;5070346;28;20039;-55
2022/09/26 06:39:35;;;;;;;8.93;5.60;;;11.50;99.90;;;;;;5068328;28;20025;-56
2022/09/26 06:42:06;;;;;;;14.70;5.88;;;11.60;99.90;;;;;;5069168;28;20025;-55
2022/09/26 06:44:32;;;;;;;8.70;5.30;;;11.70;99.90;;;;;;5068368;28;20024;-54
2022/09/26 06:46:59;;;;;;;18.42;5.20;;;11.80;99.90;;;;;;5069504;28;20051;-57
2022/09/26 06:49:26;;;;;;;9.80;4.95;;;11.90;99.90;;;;;;5068744;28;20502;-56
2022/09/26 06:51:51;;;;;;;13.38;4.50;;;12.00;99.90;;;;;;5069564;28;20028;-54
2022/09/26 06:54:17;;;;;;;8.95;4.57;;;12.10;99.90;;;;;;5065001;28;20067;-55
2022/09/26 06:56:43;;;;;;;9.38;4.25;;;12.20;99.90;;;;;;5071131;28;20489;-57
2022/09/26 06:59:09;;;;;;;7.07;3.72;;;12.30;99.90;;;;;;5070926;28;20032;-55
2022/09/26 07:01:34;;;;;;;7.63;3.10;;;12.30;99.90;;;;;;5070719;28;20032;-56
2022/09/26 07:04:00;;;;;;;10.52;3.88;;;12.40;99.90;;;;;;5063059;28;20020;-57
2022/09/26 07:06:26;;;;;;;7.57;3.72;;;12.40;99.90;;;;;;5070265;28;20371;-56
2022/09/26 07:08:52;;;;;;;6.45;3.72;;;12.50;99.90;;;;;;5068584;28;20032;-56
2022/09/26 07:11:18;;;;;;;12.02;3.67;;;12.50;99.90;;;;;;5069103;28;20421;-55
2022/09/26 07:13:44;;;;;;;7.13;3.45;;;12.50;99.90;;;;;;5064350;28;20025;-55
2022/09/26 07:16:11;;;;;;;7.72;4.00;;;12.50;99.90;;;;;;5068095;28;20050;-56
2022/09/26 07:18:37;;;;;;;6.70;2.72;;;12.50;99.90;;;;;;5066645;28;20047;-54
2022/09/26 07:21:05;;;;;;;9.77;3.22;;;12.50;99.90;;;;;;5066833;28;20028;-57
2022/09/26 07:23:30;;;;;;;8.15;2.53;;;12.50;99.90;;;;;;5068701;28;20032;-55
2022/09/26 07:25:56;;;;;;;6.70;2.90;;;12.60;99.90;;;;;;5068120;28;20072;-56
2022/09/26 07:28:21;;;;;;;7.03;2.92;;;12.60;99.90;;;;;;5061881;28;20028;-56
2022/09/26 07:30:47;;;;;;;5.07;2.25;;;12.70;99.90;;;;;;5066302;28;20028;-57
2022/09/26 07:33:13;;;;;;;6.97;2.03;;;12.70;99.90;;;;;;5061103;28;20028;-58
2022/09/26 07:35:40;;;;;;;2.50;1.90;;;12.70;99.90;;;;;;5059757;28;20048;-57
2022/09/26 07:38:05;;;;;;;4.90;1.90;;;12.80;99.90;;;;;;5065425;28;20079;-56
2022/09/26 07:40:31;;;;;;;4.80;2.85;;;12.70;99.90;;;;;;5067888;28;20028;-56
2022/09/26 07:43:00;;;;;;;11.93;2.22;;;12.80;99.90;;;;;;5056847;28;20570;-58
2022/09/26 07:50:58;;;;;;;7.35;2.08;;;12.80;99.90;;;;;;5068185;28;20043;-57
2022/09/26 07:53:25;;;;;;;3.97;1.88;;;12.80;99.90;;;;;;5066843;28;20021;-58
2022/09/26 07:56:04;;;;;;;5.68;1.92;;;12.80;99.90;;;;;;5066359;28;20023;-57
2022/09/26 07:58:34;;;;;;;5.18;1.95;;;12.80;99.90;;;;;;5063299;28;20432;-52
2022/09/26 08:01:01;;;;;;;4.28;1.42;;;12.80;99.90;;;;;;5066653;28;20367;-56
2022/09/26 08:03:27;;;;;;;4.50;2.00;;;12.80;99.90;;;;;;5068666;28;20549;-56
2022/09/26 08:05:57;;;;;;;7.60;1.98;;;12.80;99.90;;;;;;5067355;28;20478;-55
2022/09/26 08:08:22;;;;;;;5.22;1.83;;;12.80;99.90;;;;;;5064875;28;20025;-56
2022/09/26 08:10:48;;;;;;;5.43;1.75;;;12.80;99.90;;;;;;5064504;28;20549;-54
2022/09/26 08:13:13;;;;;;;6.28;2.28;;;12.80;99.90;;;;;;5054309;28;20017;-54
2022/09/26 08:15:39;;;;;;;4.75;1.60;;;12.80;99.90;;;;;;5043892;28;20028;-55
2022/09/26 08:18:05;;;;;;;4.93;1.90;;;12.80;99.90;;;;;;5039404;28;20033;-56
2022/09/26 08:20:30;;;;;;;6.40;1.70;;;12.80;99.90;;;;;;5053241;28;20028;-54
2022/09/26 08:22:56;;;;;;;5.00;1.50;;;12.80;99.90;;;;;;5048384;28;20037;-57
2022/09/26 08:25:21;;;;;;;4.47;1.85;;;12.80;99.90;;;;;;5054031;28;20878;-56
2022/09/26 08:27:49;;;;;;;5.35;1.67;;;12.70;99.90;;;;;;5061267;28;20390;-57
2022/09/26 08:30:15;;;;;;;7.88;1.70;;;12.60;99.90;;;;;;5058026;28;20507;-56
2022/09/26 08:32:40;;;;;;;5.20;1.85;;;12.60;99.90;;;;;;5056400;28;20033;-56
2022/09/26 08:35:08;;;;;;;6.22;1.95;;;12.60;99.90;;;;;;5049623;28;20616;-56
2022/09/26 08:37:33;;;;;;;4.05;1.75;;;12.50;99.90;;;;;;5055152;28;20442;-55
2022/09/26 08:39:59;;;;;;;4.55;1.60;;;12.50;99.90;;;;;;5055513;28;20025;-56
2022/09/26 08:42:53;;;;;;;5.18;1.58;;;12.50;99.90;;;;;;5058766;28;20037;-57
2022/09/26 08:48:33;;;;;;;5.65;1.38;;;12.40;99.90;;;;;;5058886;28;20047;-55
2022/09/26 08:51:11;;;;;;;2.72;1.33;;;12.50;99.90;;;;;;5054388;28;20079;-56
2022/09/26 08:53:45;;;;;;;3.22;1.50;;;12.40;99.90;;;;;;5047652;28;20029;-55
2022/09/26 08:56:26;;;;;;;3.83;1.42;;;12.30;99.90;;;;;;5053814;28;20059;-56
2022/09/26 08:58:55;;;;;;;2.78;1.35;;;12.40;99.90;;;;;;5050168;28;20049;-56
2022/09/26 09:01:27;;;;;;;3.33;1.10;;;12.50;99.90;;;;;;5052621;28;20017;-56
2022/09/26 09:04:27;;;;;;;2.35;1.30;;;12.30;99.90;;;;;;5062174;28;20448;-54
2022/09/26 09:07:03;;;;;;;4.53;1.35;;;12.30;99.90;;;;;;5061521;28;20041;-57
2022/09/26 09:09:28;;;;;;;3.63;1.33;;;12.20;99.90;;;;;;5052589;28;20052;-56
2022/09/26 09:12:07;;;;;;;3.38;1.88;;;12.20;99.90;;;;;;5055069;28;20486;-57
2022/09/26 09:14:52;;;;;;;3.55;1.50;;;12.20;99.90;;;;;;5065033;28;20532;-55
2022/09/26 09:17:21;;;;;;;;;;;12.20;99.90;;;;;;5063479;28;20131;-56
2022/09/26 09:20:06;;;;;;;4.18;1.40;;;12.20;99.90;;;;;;5060776;28;19931;-56
2022/09/26 09:23:01;;;;;;;4.88;1.77;;;12.20;99.90;;;;;;5057070;28;20032;-57
2022/09/26 09:25:47;;;;;;;3.33;1.75;;;12.10;99.90;;;;;;5053843;28;20028;-57
2022/09/26 09:28:17;;;;;;;5.55;1.58;;;12.20;99.90;;;;;;5058889;28;20115;-54
2022/09/26 09:30:53;;;;;;;6.53;2.47;;;12.10;99.90;;;;;;5070706;28;20095;-57
2022/09/26 09:33:23;;;;;;;3.72;1.63;;;12.10;99.90;;;;;;5063462;28;20520;-56
2022/09/26 09:35:58;;;;;;;6.03;1.60;;;12.10;99.90;;;;;;5051476;28;20028;-55
2022/09/26 09:38:32;;;;;;;1.80;1.45;;;12.20;99.90;;;;;;5063600;28;20091;-56
2022/09/26 09:41:06;;;;;;;9.52;2.00;;;12.20;99.90;;;;;;5061707;28;20058;-57
2022/09/26 09:43:46;;;;;;;3.95;1.98;;;12.20;99.90;;;;;;5063768;28;20585;-53
2022/09/26 09:46:28;;;;;;;3.35;1.35;;;12.20;99.90;;;;;;5053779;28;20021;-53
2022/09/26 09:49:09;;;;;;;3.47;1.88;;;12.30;99.90;;;;;;5064612;28;20021;-57
2022/09/26 09:52:00;;;;;;;3.03;1.55;;;12.30;99.90;;;;;;5052350;28;20025;-56
2022/09/26 09:54:25;;;;;;;7.15;2.00;;;12.30;99.90;;;;;;5061670;28;20501;-53
2022/09/26 09:57:22;;;;;;;5.07;1.67;;;12.40;99.90;;;;;;5058651;28;20029;-57
2022/09/26 10:00:16;;;;;;;3.95;2.08;;;12.30;99.90;;;;;;5052319;28;20465;-53
2022/09/26 10:03:03;;;;;;;4.72;2.25;;;12.30;99.90;;;;;;5058325;28;20025;-56
2022/09/26 10:05:43;;;;;;;5.80;1.95;;;12.20;99.90;;;;;;5052649;28;20079;-54
2022/09/26 10:08:19;;;;;;;9.30;2.00;;;12.30;99.90;;;;;;5051940;28;20033;-55
2022/09/26 10:11:06;;;;;;;3.67;1.85;;;12.30;99.90;;;;;;5060965;28;20108;-52
2022/09/26 10:13:33;;;;;;;4.13;1.92;;;12.30;99.90;;;;;;5057236;28;20040;-52
2022/09/26 10:16:02;;;;;;;3.42;2.08;;;12.30;99.90;;;;;;5050226;28;20029;-57
2022/09/26 10:18:30;;;;;;;4.13;1.98;;;12.30;99.90;;;;;;5050815;28;20519;-55
2022/09/26 10:21:11;;;;;;;7.15;2.05;;;12.30;99.90;;;;;;5058668;28;20074;-53
2022/09/26 10:23:45;;;;;;;2.75;1.95;;;12.30;99.90;;;;;;5056353;28;20024;-56
2022/09/26 10:26:15;;;;;;;3.67;1.85;;;12.40;99.90;;;;;;5061830;28;20517;-56
2022/09/26 10:28:54;;;;;;;4.43;2.53;;;12.40;99.90;;;;;;5064220;28;20143;-52
2022/09/26 10:31:37;;;;;;;9.95;2.42;;;12.40;99.90;;;;;;5057022;28;20037;-55
2022/09/26 10:34:20;;;;;;;5.15;2.53;;;12.40;99.90;;;;;;5063256;28;20108;-54
2022/09/26 10:36:46;;;;;;;3.80;2.70;;;12.50;99.90;;;;;;5061778;28;20034;-56
2022/09/26 10:42:18;;;;;;;7.75;2.67;;;12.50;99.90;;;;;;5052417;28;20112;-52
2022/09/26 10:44:46;;;;;;;4.30;3.13;;;12.50;99.90;;;;;;5059283;28;20017;-53
2022/09/26 10:47:16;;;;;;;6.85;3.03;;;12.50;99.90;;;;;;5065262;28;20394;-56
2022/09/26 10:49:57;;;;;;;5.40;2.75;;;12.50;99.90;;;;;;5068004;28;20033;-56
2022/09/26 10:52:31;;;;;;;3.50;2.05;;;12.50;99.90;;;;;;5051245;28;20083;-55
2022/09/26 10:55:00;;;;;;;3.65;2.22;;;12.50;99.90;;;;;;5096510;22;20036;-61
2022/09/26 10:57:50;;;;;;;3.78;2.00;;;12.50;99.90;;;;;;5090242;28;20027;-60
2022/09/26 11:00:41;;;;;;;6.03;1.92;;;12.40;99.90;;;;;;5091431;28;20119;-61
2022/09/26 11:03:10;;;;;;;5.88;2.15;;;12.50;99.90;;;;;;5092286;28;20028;-58
2022/09/26 11:05:57;;;;;;;4.88;2.50;;;12.50;99.90;;;;;;5080289;28;20025;-61
2022/09/26 11:08:32;;;;;;;4.53;1.80;;;12.60;99.90;;;;;;5079354;28;20044;-61
2022/09/26 11:11:10;;;;;;;3.38;1.73;;;12.60;99.90;;;;;;5078873;28;20036;-59
2022/09/26 11:14:02;;;;;;;6.20;1.88;;;12.70;99.90;;;;;;5085350;28;20111;-58
2022/09/26 11:16:28;;;;;;;7.63;2.00;;;12.70;99.90;;;;;;5085084;28;20035;-59
2022/09/26 11:19:26;;;;;;;3.60;2.00;;;12.70;99.90;;;;;;5076926;28;20028;-60
2022/09/26 11:22:05;;;;;;;9.43;1.75;;;12.70;99.90;;;;;;5057616;28;20047;-59
2022/09/26 11:24:44;;;;;;;3.22;1.70;;;12.70;99.90;;;;;;5075646;28;20032;-60
2022/09/26 11:27:42;;;;;;;5.45;1.95;;;12.70;99.90;;;;;;5070446;28;20028;-59
2022/09/26 11:30:19;;;;;;;3.08;1.90;;;12.80;99.90;;;;;;5071382;28;20033;-62
2022/09/26 11:32:48;;;;;;;4.18;1.73;;;12.80;99.90;;;;;;5075283;28;20031;-59
2022/09/26 11:35:23;;;;;;;9.93;2.70;;;13.00;99.90;;;;;;5074446;28;20020;-58
2022/09/26 11:38:12;;;;;;;9.25;1.80;;;13.10;99.90;;;;;;5068073;28;20021;-60
2022/09/26 11:40:40;;;;;;;2.85;1.20;;;13.20;99.90;;;;;;5072557;28;21854;-59
2022/09/26 11:43:12;;;;;;;4.25;1.52;;;13.30;99.90;;;;;;5075328;28;20052;-60
2022/09/26 11:45:52;;;;;;;7.30;1.77;;;13.40;99.90;;;;;;5083001;28;20028;-60
2022/09/26 11:48:39;;;;;;;8.85;1.52;;;13.50;99.90;;;;;;5082143;28;20510;-59
2022/09/26 11:51:30;;;;;;;2.80;1.27;;;13.70;99.90;;;;;;5079040;28;20036;-61
2022/09/26 11:54:20;;;;;;;7.97;1.30;;;13.80;99.90;;;;;;5076635;28;20090;-58
2022/09/26 11:57:00;;;;;;;4.47;2.42;;;13.80;99.90;;;;;;5088854;28;20039;-60
2022/09/26 11:59:31;;;;;;;1.50;1.17;;;13.80;99.90;;;;;;5084096;28;20038;-60
2022/09/26 12:02:30;;;;;;;2.38;1.35;;;13.80;99.90;;;;;;5079924;28;20327;-57
2022/09/26 12:05:26;;;;;;;6.43;1.17;;;13.80;99.90;;;;;;5071326;28;20394;-58
2022/09/26 12:07:57;;;;;;;1.65;0.95;;;13.80;99.90;;;;;;5078850;28;20051;-58
2022/09/26 12:10:53;;;;;;;17.73;2.80;;;13.80;99.90;;;;;;5079185;28;20062;-60
2022/09/26 12:13:33;;;;;;;10.38;1.20;;;13.90;99.90;;;;;;5082054;28;20065;-58
2022/09/26 12:16:13;;;;;;;1.00;0.65;;;13.80;99.90;;;;;;5070514;28;20053;-59
2022/09/26 12:18:38;;;;;;;5.57;0.98;;;13.80;99.90;;;;;;5077210;28;20035;-57
2022/09/26 12:21:10;;;;;;;7.25;0.98;;;13.70;99.90;;;;;;5078503;28;20020;-61
2022/09/26 12:24:04;;;;;;;3.53;0.90;;;13.70;99.90;;;;;;5075396;28;20492;-58
2022/09/26 12:26:57;;;;;;;1.02;0.70;;;13.70;99.90;;;;;;5074035;28;20024;-62
2022/09/26 12:29:33;;;;;;;5.13;1.13;;;13.70;99.90;;;;;;5071017;28;20401;-60
2022/09/26 12:32:25;;;;;;;2.63;1.00;;;13.70;99.90;;;;;;5074154;28;20117;-59
2022/09/26 12:35:20;;;;;;;5.78;1.27;;;13.70;99.90;;;;;;5078700;28;20025;-59
2022/09/26 12:38:15;;;;;;;1.60;0.80;;;13.60;99.90;;;;;;5078524;28;20505;-61
2022/09/26 12:41:13;;;;;;;4.82;0.98;;;13.70;99.90;;;;;;5061126;28;20430;-57
2022/09/26 12:43:48;;;;;;;2.25;0.95;;;13.70;99.90;;;;;;5078167;28;20485;-59
2022/09/26 12:46:25;;;;;;;3.60;0.85;;;13.70;99.90;;;;;;5074813;28;20021;-61
2022/09/26 12:49:31;;;;;;;2.70;1.10;;;13.60;99.90;;;;;;5074669;28;20090;-60
2022/09/26 12:52:23;;;;;;;4.22;1.00;;;13.60;99.90;;;;;;5076340;28;20103;-60
2022/09/26 12:55:13;;;;;;;7.35;1.30;;;13.60;99.90;;;;;;5080232;28;20371;-60
2022/09/26 12:57:53;;;;;;;2.47;1.13;;;13.60;99.90;;;;;;5082475;28;20038;-59
2022/09/26 13:00:21;;;;;;;1.75;0.98;;;13.60;99.90;;;;;;5077413;28;20013;-60
2022/09/26 13:03:21;;;;;;;6.32;1.17;;;13.60;99.90;;;;;;5088680;28;20028;-61
2022/09/26 13:06:08;;;;;;;2.25;1.05;;;13.60;99.90;;;;;;5074038;28;20031;-59
2022/09/26 13:09:02;;;;;;;8.38;1.40;;;13.50;99.90;;;;;;5076348;28;20562;-60
2022/09/26 13:11:56;;;;;;;3.08;1.02;;;13.40;99.90;;;;;;5076828;28;20111;-61
2022/09/26 13:14:54;;;;;;;4.20;1.40;;;13.30;99.90;;;;;;5079248;28;20067;-60
2022/09/26 13:17:30;;;;;;;3.45;1.25;;;13.20;99.90;;;;;;5080003;28;20089;-59
2022/09/26 13:20:26;;;;;;;3.67;1.40;;;13.00;99.90;;;;;;5080420;28;20028;-59
2022/09/26 13:23:08;;;;;;;4.57;1.25;;;13.00;99.90;;;;;;5078382;28;20039;-59
2022/09/26 13:25:54;;;;;;;4.22;1.70;;;12.90;99.90;;;;;;5086421;28;20024;-60
2022/09/26 13:28:33;;;;;;;11.07;2.10;;;12.90;99.90;;;;;;5077679;28;20033;-59
2022/09/26 13:31:03;;;;;;;3.47;1.90;;;12.90;99.90;;;;;;5077575;28;20027;-58